Time;durP1;ratioP1;P1;durP2;ratioP2;P2;SDS_P1;SDS_P2;PMS_P1;PMS_P2;Temp;Humidity;BMP_temperature;BMP_pressure;BME280_temperature;BME280_humidity;BME280_pressure;Samples;Min_cycle;Max_cycle;Signal;HPM_P1;HPM_P2
2022/11/11 00:01:59;;;;;;;;;4.00;3.00;;;;;20.77;44.98;102476.59;5058735;28;45235;-50
2022/11/11 00:04:24;;;;;;;;;3.00;2.00;;;;;20.77;44.72;102472.19;5058053;28;46846;-54
2022/11/11 00:06:50;;;;;;;;;4.50;3.25;;;;;20.72;44.88;102463.53;5057477;28;45410;-49
2022/11/11 00:09:15;;;;;;;;;2.00;2.00;;;;;20.76;44.79;102464.34;5058339;28;45395;-51
2022/11/11 00:11:40;;;;;;;;;3.00;3.00;;;;;20.72;44.81;102460.91;5058248;28;45639;-48
2022/11/11 00:14:06;;;;;;;;;4.00;3.00;;;;;20.73;44.92;102459.97;5057318;28;59960;-53
2022/11/11 00:25:04;;;;;;;;;3.00;3.00;;;;;20.72;44.33;102463.53;5057744;28;45421;-51
2022/11/11 00:27:28;;;;;;;;;8.00;4.50;;;;;20.70;44.61;102450.41;5057654;28;45183;-51
2022/11/11 00:29:53;;;;;;;;;2.75;2.75;;;;;20.69;44.76;102451.31;5057721;28;45574;-51
2022/11/11 00:32:21;;;;;;;;;4.25;3.00;;;;;20.68;44.38;102452.22;5073568;28;51323;-53
2022/11/11 00:37:32;;;;;;;;;3.00;3.00;;;;;20.67;44.55;102450.47;5070914;28;45154;-53
2022/11/11 00:39:58;;;;;;;;;4.00;3.00;;;;;20.68;44.68;102446.09;5075662;28;45200;-53
2022/11/11 00:42:23;;;;;;;;;3.00;3.00;;;;;20.65;44.67;102457.59;5084518;28;44823;-50
2022/11/11 00:44:48;;;;;;;;;3.00;3.00;;;;;20.64;44.35;102465.53;5065846;28;46054;-53
2022/11/11 00:52:45;;;;;;;;;4.50;2.75;;;;;20.65;44.73;102485.69;5056211;28;45437;-53
2022/11/11 00:55:10;;;;;;;;;6.25;3.25;;;;;20.64;44.75;102491.88;5057219;28;46624;-53
2022/11/11 00:57:36;;;;;;;;;3.75;3.00;;;;;20.62;44.60;102497.19;5057035;28;45340;-53
2022/11/11 01:00:01;;;;;;;;;4.00;4.00;;;;;20.64;44.90;102503.28;5058794;28;45405;-53
2022/11/11 01:02:26;;;;;;;;;4.75;3.00;;;;;20.64;44.48;102494.50;5074693;28;45599;-53
2022/11/11 01:04:51;;;;;;;;;3.25;3.25;;;;;20.64;44.54;102492.75;5057041;28;54850;-50
2022/11/11 01:07:17;;;;;;;;;4.25;4.25;;;;;20.62;44.28;102489.28;5057113;28;45303;-52
2022/11/11 01:09:42;;;;;;;;;3.00;3.00;;;;;20.61;44.60;102481.44;5057015;28;45365;-52
2022/11/11 01:12:07;;;;;;;;;3.00;3.00;;;;;20.61;44.64;102486.72;5056993;28;45315;-53
2022/11/11 01:14:33;;;;;;;;;5.00;4.00;;;;;20.60;44.45;102485.84;5056186;28;63028;-53
2022/11/11 01:16:58;;;;;;;;;2.00;2.00;;;;;20.59;44.27;102489.38;5056101;28;59462;-52
2022/11/11 01:19:23;;;;;;;;;4.33;3.00;;;;;20.59;44.70;102484.09;5056296;28;58802;-51
2022/11/11 01:21:48;;;;;;;;;4.00;4.00;;;;;20.57;44.65;102475.38;5056937;28;45161;-54
2022/11/11 01:24:14;;;;;;;;;4.33;3.33;;;;;20.58;44.61;102485.00;5056127;28;65434;-52
2022/11/11 01:26:39;;;;;;;;;3.00;3.00;;;;;20.57;44.69;102478.00;5055953;28;59499;-51
2022/11/11 01:29:04;;;;;;;;;3.25;3.25;;;;;20.56;44.85;102478.91;5056635;28;45197;-52
2022/11/11 01:31:29;;;;;;;;;0.75;0.00;;;;;20.56;44.45;102478.91;5061968;28;45530;-51
2022/11/11 01:33:55;;;;;;;;;2.00;2.00;;;;;20.54;44.29;102467.59;5085001;28;53284;-49
2022/11/11 01:36:25;;;;;;;;;3.00;3.00;;;;;20.55;44.77;102471.94;5063810;28;51346;-53
2022/11/11 01:38:54;;;;;;;;;4.25;3.00;;;;;20.55;44.44;102472.78;5057987;28;45429;-53
2022/11/11 01:41:31;;;;;;;;;0.50;0.50;;;;;20.54;44.46;102478.13;5055872;28;45411;-54
2022/11/11 01:43:58;;;;;;;;;3.00;3.00;;;;;20.54;44.58;102476.34;5056289;28;45403;-52
2022/11/11 01:46:58;;;;;;;;;3.00;3.00;;;;;20.54;44.42;102478.13;5056367;28;45796;-53
2022/11/11 01:49:28;;;;;;;;;3.00;3.00;;;;;20.51;44.44;102481.69;5047295;28;45347;-54
2022/11/11 01:52:15;;;;;;;;;3.25;3.25;;;;;20.51;44.73;102481.69;5058590;28;45628;-52
2022/11/11 01:54:52;;;;;;;;;3.00;3.00;;;;;20.51;44.46;102486.09;5055818;28;45687;-54
2022/11/11 01:57:42;;;;;;;;;3.00;2.00;;;;;20.51;44.77;102497.50;5059151;28;45421;-54
2022/11/11 02:00:11;;;;;;;;;3.00;3.00;;;;;20.51;44.54;102501.91;5059360;28;45441;-53
2022/11/11 02:02:43;;;;;;;;;2.75;2.25;;;;;20.50;44.69;102506.31;5057423;28;45226;-53
2022/11/11 02:07:58;;;;;;;;;3.00;3.00;;;;;20.50;44.24;102502.81;5059479;28;45468;-53
2022/11/11 02:10:26;;;;;;;;;3.00;3.00;;;;;20.50;44.35;102500.19;5075373;28;44707;-50
2022/11/11 02:15:36;;;;;;;;;5.25;3.00;;;;;20.47;44.42;102500.25;5082889;28;44903;-53
2022/11/11 02:18:02;;;;;;;;;4.75;2.50;;;;;20.50;44.82;102494.91;5076417;28;45852;-54
2022/11/11 02:20:32;;;;;;;;;3.25;3.25;;;;;20.46;44.81;102483.59;5069620;28;44813;-53
2022/11/11 02:23:13;;;;;;;;;5.00;4.00;;;;;20.46;44.83;102478.34;5064377;28;45333;-53
2022/11/11 02:25:41;;;;;;;;;3.25;3.00;;;;;20.44;44.29;102477.50;5057914;28;45441;-48
2022/11/11 02:28:08;;;;;;;;;3.75;2.00;;;;;20.46;44.47;102488.88;5056146;28;45266;-50
2022/11/11 02:30:33;;;;;;;;;3.00;3.00;;;;;20.46;44.82;102488.00;5058703;28;45675;-52
2022/11/11 02:32:59;;;;;;;;;5.00;2.00;;;;;20.44;44.63;102481.94;5058407;28;47031;-51
2022/11/11 02:35:42;;;;;;;;;2.25;2.25;;;;;20.44;44.78;102480.16;5060186;28;51300;-50
2022/11/11 02:38:10;;;;;;;;;2.50;2.00;;;;;20.45;44.66;102476.59;5064171;28;45379;-49
2022/11/11 02:43:28;;;;;;;;;2.25;2.00;;;;;20.43;44.57;102472.31;5084771;28;45379;-53
2022/11/11 02:45:54;;;;;;;;;3.25;2.00;;;;;20.43;44.36;102480.19;5085608;28;45286;-57
2022/11/11 02:48:19;;;;;;;;;3.00;3.00;;;;;20.42;44.93;102476.69;5085080;28;44687;-52
2022/11/11 02:50:45;;;;;;;;;4.00;3.00;;;;;20.44;44.67;102476.66;5067144;28;45422;-55
2022/11/11 02:53:10;;;;;;;;;3.00;3.00;;;;;20.43;44.44;102472.31;5058993;28;46626;-53
2022/11/11 02:55:36;;;;;;;;;3.00;2.75;;;;;20.44;44.69;102479.31;5058890;28;46117;-53
2022/11/11 02:58:01;;;;;;;;;2.75;2.75;;;;;20.42;44.73;102471.41;5059189;28;45398;-51
2022/11/11 03:00:26;;;;;;;;;2.75;2.25;;;;;20.41;44.63;102480.22;5059798;28;45825;-48
2022/11/11 03:02:52;;;;;;;;;2.00;2.00;;;;;20.41;44.61;102480.22;5063693;28;45573;-53
2022/11/11 03:05:17;;;;;;;;;1.25;1.25;;;;;20.42;44.65;102489.84;5078391;28;45000;-51
2022/11/11 03:07:43;;;;;;;;;3.50;3.50;;;;;20.41;44.71;102484.66;5079195;28;45401;-51
2022/11/11 03:10:09;;;;;;;;;4.75;2.00;;;;;20.41;44.80;102476.75;5060267;28;45553;-51
2022/11/11 03:12:34;;;;;;;;;3.00;3.00;;;;;20.43;44.34;102477.56;5059363;28;45481;-51
2022/11/11 03:14:59;;;;;;;;;4.50;4.50;;;;;20.39;44.81;102466.25;5058812;28;45443;-53
2022/11/11 03:17:40;;;;;;;;;3.25;3.00;;;;;20.37;44.29;102463.66;5059080;28;55800;-50
2022/11/11 03:23:04;;;;;;;;;3.00;3.00;;;;;20.38;44.42;102465.38;5058842;28;45429;-54
2022/11/11 03:25:37;;;;;;;;;2.00;2.00;;;;;20.37;44.59;102468.06;5071679;28;46339;-48
2022/11/11 03:28:12;;;;;;;;;2.00;2.00;;;;;20.39;44.12;102466.25;5083959;28;45080;-54
2022/11/11 03:30:43;;;;;;;;;2.00;2.00;;;;;20.37;44.23;102468.06;5058914;28;45453;-53
2022/11/11 03:33:09;;;;;;;;;4.00;4.00;;;;;20.36;44.49;102472.47;5057499;28;45475;-54
2022/11/11 03:35:35;;;;;;;;;2.75;2.75;;;;;20.37;44.13;102474.19;5058208;28;46207;-54
2022/11/11 03:38:22;;;;;;;;;3.00;3.00;;;;;20.37;44.61;102473.34;5063214;28;45255;-50
2022/11/11 03:40:51;;;;;;;;;3.50;3.50;;;;;20.35;44.20;102475.16;5070068;28;45469;-54
2022/11/11 03:43:18;;;;;;;;;3.00;3.00;;;;;20.35;44.75;102469.88;5058468;28;45323;-53
2022/11/11 03:45:44;;;;;;;;;4.00;3.00;;;;;20.35;44.74;102475.16;5057926;28;46245;-52
2022/11/11 03:48:10;;;;;;;;;2.50;2.25;;;;;20.34;44.68;102476.91;5058037;28;45798;-52
2022/11/11 03:50:35;;;;;;;;;2.25;2.25;;;;;20.34;44.78;102478.69;5058149;28;45699;-54
2022/11/11 03:53:01;;;;;;;;;3.25;2.00;;;;;20.33;44.43;102477.84;5058343;28;45534;-53
2022/11/11 03:55:29;;;;;;;;;3.00;3.00;;;;;20.31;44.54;102476.13;5058293;28;45284;-50
2022/11/11 03:57:55;;;;;;;;;2.75;2.75;;;;;20.31;44.18;102484.91;5058030;28;45413;-54
2022/11/11 04:00:25;;;;;;;;;4.25;3.00;;;;;20.32;44.77;102484.00;5057445;28;55774;-53
2022/11/11 04:11:13;;;;;;;;;4.25;3.00;;;;;20.32;44.77;102496.28;5058546;28;45416;-52
2022/11/11 04:16:25;;;;;;;;;2.75;2.75;;;;;20.30;44.72;102498.09;5059945;28;45795;-49
2022/11/11 04:21:44;;;;;;;;;3.00;3.00;;;;;20.30;44.24;102504.25;5059618;28;45359;-51
2022/11/11 04:27:01;;;;;;;;;3.00;3.00;;;;;20.31;44.63;102495.44;5059145;28;45318;-51
2022/11/11 04:29:27;;;;;;;;;2.25;2.25;;;;;20.28;44.38;102492.88;5062878;28;45212;-51
2022/11/11 04:34:43;;;;;;;;;3.50;3.00;;;;;20.29;44.20;102491.09;5058429;28;45780;-53
2022/11/11 04:37:09;;;;;;;;;3.00;3.00;;;;;20.28;44.48;102487.63;5057395;28;46084;-51
2022/11/11 04:42:18;;;;;;;;;4.75;3.75;;;;;20.28;44.51;102489.41;5057261;28;45414;-51
2022/11/11 04:47:27;;;;;;;;;5.00;3.00;;;;;20.28;44.55;102482.34;5057324;28;45916;-53
2022/11/11 04:49:52;;;;;;;;;3.00;3.00;;;;;20.30;44.74;102490.19;5057502;28;45818;-47
2022/11/11 04:52:27;;;;;;;;;3.50;3.00;;;;;20.28;44.37;102492.88;5058363;28;45381;-51
2022/11/11 04:57:42;;;;;;;;;3.25;3.00;;;;;20.25;44.55;102492.97;5074359;28;45362;-51
2022/11/11 05:00:09;;;;;;;;;3.50;3.50;;;;;20.27;44.62;102499.06;5068987;28;45360;-49
2022/11/11 05:05:19;;;;;;;;;3.50;3.50;;;;;20.24;44.27;102488.59;5057849;28;45244;-50
2022/11/11 05:10:28;;;;;;;;;4.00;4.00;;;;;20.22;44.13;102483.38;5057444;28;45757;-53
2022/11/11 05:21:19;;;;;;;;;4.25;4.25;;;;;20.21;44.25;102484.28;5056894;28;45894;-60
2022/11/11 05:21:29;;;;;;;;;7.00;5.25;;;;;20.18;43.96;102484.38;5081453;28;45098;-48
2022/11/11 05:26:38;;;;;;;;;5.00;5.00;;;;;20.14;44.23;102471.34;5057082;28;45287;-52
2022/11/11 05:29:03;;;;;;;;;3.00;2.00;;;;;20.15;44.49;102479.22;5056547;28;58067;-52
2022/11/11 05:31:29;;;;;;;;;4.00;4.00;;;;;20.15;44.59;102480.97;5056440;28;45318;-52
2022/11/11 05:33:54;;;;;;;;;6.00;5.00;;;;;20.14;44.50;102480.13;5056524;28;45239;-51
2022/11/11 05:36:20;;;;;;;;;4.00;4.00;;;;;20.15;44.68;102484.47;5056915;28;45537;-52
2022/11/11 05:38:46;;;;;;;;;4.25;4.25;;;;;20.12;44.53;102484.56;5056768;28;46156;-53
2022/11/11 05:41:11;;;;;;;;;4.00;4.00;;;;;20.13;44.35;102488.91;5059325;28;50775;-53
2022/11/11 05:43:36;;;;;;;;;3.00;3.00;;;;;20.15;44.55;102492.38;5064419;28;52296;-53
2022/11/11 05:46:03;;;;;;;;;4.75;4.00;;;;;20.14;44.69;102484.50;5073911;28;45330;-52
2022/11/11 05:48:29;;;;;;;;;4.50;4.00;;;;;20.12;44.24;102486.34;5063973;28;46290;-50
2022/11/11 05:50:57;;;;;;;;;4.00;3.25;;;;;20.13;44.29;102488.91;5057158;28;45326;-52
2022/11/11 05:53:22;;;;;;;;;3.50;3.00;;;;;20.12;44.43;102481.06;5056716;28;45724;-52
2022/11/11 05:55:51;;;;;;;;;1.25;1.25;;;;;20.13;44.13;102485.41;5055442;28;45605;-49
2022/11/11 05:58:18;;;;;;;;;3.50;3.00;;;;;20.11;44.24;102480.19;5056509;28;46291;-54
2022/11/11 06:00:44;;;;;;;;;4.75;3.00;;;;;20.12;44.54;102478.44;5058061;28;45277;-53
2022/11/11 06:03:09;;;;;;;;;3.00;3.00;;;;;20.11;44.49;102479.34;5071071;28;45358;-49
2022/11/11 06:05:36;;;;;;;;;3.00;3.00;;;;;20.12;44.14;102478.44;5061761;28;45299;-55
2022/11/11 06:08:01;;;;;;;;;3.00;3.00;;;;;20.11;44.67;102479.34;5059653;28;47143;-55
2022/11/11 06:10:29;;;;;;;;;4.50;3.00;;;;;20.11;44.11;102485.47;5059598;28;45743;-53
2022/11/11 06:13:08;;;;;;;;;2.25;2.25;;;;;20.10;44.63;102490.78;5060175;28;45213;-54
2022/11/11 06:15:37;;;;;;;;;3.00;3.00;;;;;20.10;44.35;102491.63;5061440;28;45431;-54
2022/11/11 06:18:05;;;;;;;;;3.25;3.25;;;;;20.08;44.59;102491.69;5071073;28;46221;-54
2022/11/11 06:20:31;;;;;;;;;3.00;3.00;;;;;20.09;44.30;102495.16;5083136;28;45196;-51
2022/11/11 06:22:57;;;;;;;;;6.00;3.00;;;;;20.08;44.10;102502.19;5085599;28;45291;-54
2022/11/11 06:28:13;;;;;;;;;3.00;3.00;;;;;20.08;44.60;102509.22;5063766;28;45316;-51
2022/11/11 06:30:39;;;;;;;;;3.00;3.00;;;;;20.07;44.27;102507.50;5060482;28;45247;-46
2022/11/11 06:33:08;;;;;;;;;3.00;3.00;;;;;20.08;44.45;102503.97;5060016;28;45275;-46
2022/11/11 06:35:35;;;;;;;;;2.50;2.50;;;;;20.07;44.37;102508.38;5059904;28;45592;-46
2022/11/11 06:38:02;;;;;;;;;6.50;3.00;;;;;20.07;44.09;102513.63;5059276;28;45990;-54
2022/11/11 06:40:27;;;;;;;;;3.25;3.25;;;;;20.06;44.58;102511.91;5058342;28;45706;-54
2022/11/11 06:42:53;;;;;;;;;2.50;2.50;;;;;20.06;44.25;102511.06;5070347;28;45774;-52
2022/11/11 06:45:18;;;;;;;;;2.00;2.00;;;;;20.04;44.46;102518.97;5081729;28;45328;-54
2022/11/11 06:47:44;;;;;;;;;0.75;0.75;;;;;20.06;44.14;102514.53;5063500;28;46649;-53
2022/11/11 06:50:09;;;;;;;;;3.00;2.00;;;;;20.04;44.14;102520.75;5062404;28;45341;-52
2022/11/11 06:52:34;;;;;;;;;4.00;4.00;;;;;20.04;44.18;102526.03;5062159;28;45799;-54
2022/11/11 06:55:00;;;;;;;;;3.00;3.00;;;;;20.04;44.01;102537.41;5064815;28;45206;-52
2022/11/11 06:57:25;;;;;;;;;3.00;1.00;;;;;20.04;43.92;102539.19;5064492;28;61567;-53
2022/11/11 06:59:50;;;;;;;;;3.00;3.00;;;;;20.04;44.42;102540.03;5061468;28;45375;-53
2022/11/11 07:02:16;;;;;;;;;3.00;3.00;;;;;20.03;44.08;102535.66;5058967;28;46051;-49
2022/11/11 07:04:41;;;;;;;;;2.50;2.50;;;;;20.03;44.01;102540.94;5059803;28;45431;-48
2022/11/11 07:07:06;;;;;;;;;4.00;2.75;;;;;20.02;44.43;102546.25;5066278;28;45255;-53
2022/11/11 07:09:31;;;;;;;;;2.25;2.25;;;;;20.01;44.22;102540.09;5062915;28;45256;-53
2022/11/11 07:11:57;;;;;;;;;3.00;3.00;;;;;20.02;44.01;102536.56;5069976;28;45393;-50
2022/11/11 07:14:22;;;;;;;;;2.67;2.33;;;;;20.02;44.60;102540.97;5084499;28;55737;-48
2022/11/11 07:16:47;;;;;;;;;4.25;4.00;;;;;20.02;44.48;102538.34;5059829;28;47708;-52
2022/11/11 07:19:13;;;;;;;;;6.67;6.00;;;;;20.02;44.23;102531.31;5059420;28;62178;-49
2022/11/11 07:21:38;;;;;;;;;6.25;6.25;;;;;20.00;44.61;102527.00;5059695;28;45532;-51
2022/11/11 07:24:03;;;;;;;;;13.50;9.00;;;;;20.00;44.42;102521.72;5059074;28;45710;-51
2022/11/11 07:26:29;;;;;;;;;19.00;13.50;;;;;19.99;44.63;102520.88;5058236;28;46262;-53
2022/11/11 07:28:54;;;;;;;;;29.00;25.75;;;;;20.01;45.17;102521.69;5059595;28;45418;-52
2022/11/11 07:31:20;;;;;;;;;32.25;28.75;;;;;20.01;45.04;102524.31;5059222;28;45422;-49
2022/11/11 07:33:45;;;;;;;;;37.75;31.25;;;;;20.00;45.08;102527.88;5069663;28;45633;-52
2022/11/11 07:36:10;;;;;;;;;34.50;27.50;;;;;20.01;45.75;102526.94;5076143;28;45332;-54
2022/11/11 07:38:36;;;;;;;;;31.00;27.25;;;;;20.01;45.52;102528.72;5062593;28;45357;-51
2022/11/11 07:41:01;;;;;;;;;19.00;19.00;;;;;20.01;45.65;102523.47;5061082;28;45358;-53
2022/11/11 07:43:26;;;;;;;;;22.50;21.50;;;;;20.02;45.56;102523.41;5061092;28;45514;-51
2022/11/11 07:45:52;;;;;;;;;22.50;20.00;;;;;20.03;45.54;102527.78;5061946;28;46671;-52
2022/11/11 07:48:17;;;;;;;;;19.33;17.33;;;;;20.02;46.02;102523.41;5060081;28;49647;-54
2022/11/11 07:50:42;;;;;;;;;18.25;16.50;;;;;20.03;45.88;102522.50;5059410;28;45381;-47
2022/11/11 07:53:08;;;;;;;;;16.25;16.00;;;;;20.03;45.53;102517.25;5058811;28;45654;-52
2022/11/11 07:55:33;;;;;;;;;13.25;11.75;;;;;20.03;45.54;102513.75;5058141;28;46713;-53
2022/11/11 07:57:58;;;;;;;;;13.75;13.00;;;;;20.04;45.87;102513.72;5056831;28;45379;-54
2022/11/11 08:00:24;;;;;;;;;15.50;13.25;;;;;20.04;45.47;102518.97;5055847;28;45434;-54
2022/11/11 08:02:49;;;;;;;;;14.50;13.50;;;;;20.05;45.46;102522.47;5058203;28;45288;-53
2022/11/11 08:05:16;;;;;;;;;17.75;15.00;;;;;20.03;45.54;102527.78;5056191;28;47664;-54
2022/11/11 08:07:44;;;;;;;;;16.75;12.50;;;;;20.04;45.33;102529.50;5057976;28;45784;-55
2022/11/11 08:10:10;;;;;;;;;10.75;10.25;;;;;20.04;45.28;102529.50;5059568;28;45456;-53
2022/11/11 08:15:20;;;;;;;;;9.50;9.50;;;;;20.04;45.41;102534.75;5078403;28;45669;-54
2022/11/11 08:17:45;;;;;;;;;12.00;9.75;;;;;20.02;45.49;102531.31;5082112;28;45363;-49
2022/11/11 08:20:12;;;;;;;;;12.25;9.00;;;;;20.02;45.29;102525.19;5061991;28;51705;-48
2022/11/11 08:22:39;;;;;;;;;9.25;9.00;;;;;20.03;45.24;102535.66;5058766;28;45173;-51
2022/11/11 08:25:07;;;;;;;;;7.00;5.25;;;;;20.02;45.29;102535.72;5057576;28;47261;-48
2022/11/11 08:27:32;;;;;;;;;11.25;9.75;;;;;20.00;45.12;102525.25;5056818;28;45433;-47
2022/11/11 08:29:58;;;;;;;;;8.00;8.00;;;;;20.01;45.22;102534.84;5058740;28;45373;-50
2022/11/11 08:32:23;;;;;;;;;10.75;10.25;;;;;20.01;45.55;102528.72;5067467;28;45366;-52
2022/11/11 10:19:07;;;;;;;;;4.50;4.25;;;;;19.96;44.91;102577.97;5056569;28;45351;-53
2022/11/11 10:21:56;;;;;;;;;3.00;3.00;;;;;19.96;44.91;102577.97;5062779;28;47261;-55
2022/11/11 10:24:44;;;;;;;;;4.00;3.50;;;;;19.96;44.84;102578.84;5072186;28;45086;-55
2022/11/11 10:27:29;;;;;;;;;4.25;4.25;;;;;19.95;44.98;102582.38;5077143;28;45310;-53
2022/11/11 10:29:55;;;;;;;;;4.50;4.00;;;;;19.91;45.24;102576.34;5074163;28;45616;-52
2022/11/11 10:32:32;;;;;;;;;6.00;4.00;;;;;19.97;44.94;102580.56;5069523;28;45312;-50
2022/11/11 10:35:13;;;;;;;;;5.00;4.00;;;;;19.97;44.94;102571.81;5062616;28;45247;-47
2022/11/11 10:37:40;;;;;;;;;4.00;3.00;;;;;19.99;45.16;102575.25;5073290;28;45929;-51
2022/11/11 10:40:21;;;;;;;;;2.50;2.50;;;;;20.01;45.03;102576.94;5057127;28;45501;-51
2022/11/11 10:42:47;;;;;;;;;4.00;4.00;;;;;20.01;45.54;102576.94;5059237;28;46787;-49
2022/11/11 10:45:21;;;;;;;;;4.00;4.00;;;;;19.97;45.60;102564.78;5065133;28;45353;-51
2022/11/11 10:47:55;;;;;;;;;5.00;3.00;;;;;20.05;45.30;102575.13;5080778;28;44705;-51
2022/11/11 10:50:30;;;;;;;;;4.00;3.50;;;;;20.07;45.21;102576.81;5071690;28;44749;-53
2022/11/11 10:53:16;;;;;;;;;3.75;3.75;;;;;20.03;45.48;102563.75;5062107;28;46055;-55
2022/11/11 10:55:52;;;;;;;;;4.00;3.00;;;;;20.08;45.05;102573.28;5075534;28;45063;-53
2022/11/11 10:58:31;;;;;;;;;4.00;4.00;;;;;20.08;45.50;102580.28;5074664;28;45453;-51
2022/11/11 11:01:02;;;;;;;;;5.00;5.00;;;;;20.07;45.65;102573.28;5062808;28;45300;-53
2022/11/11 11:03:39;;;;;;;;;5.50;4.00;;;;;20.06;45.68;102579.50;5062728;28;45400;-49
2022/11/11 11:06:23;;;;;;;;;7.75;4.25;;;;;20.04;45.53;102576.88;5061067;28;45777;-55
2022/11/11 11:08:53;;;;;;;;;6.25;3.00;;;;;20.07;45.72;102579.44;5060700;28;45351;-59
2022/11/11 11:11:26;;;;;;;;;3.50;3.00;;;;;20.05;45.46;102568.09;5066932;28;45289;-54
2022/11/11 11:13:57;;;;;;;;;4.00;4.00;;;;;20.06;45.49;102564.53;5079662;28;45476;-53
2022/11/11 11:16:31;;;;;;;;;5.00;4.00;;;;;20.05;45.62;102560.19;5071179;28;45311;-54
2022/11/11 11:19:16;;;;;;;;;5.00;3.00;;;;;20.07;45.27;102563.66;5066649;28;45156;-55
2022/11/11 11:21:51;;;;;;;;;4.50;3.50;;;;;20.08;45.15;102564.50;5065354;28;45636;-54
2022/11/11 11:24:26;;;;;;;;;5.00;4.00;;;;;20.08;45.30;102553.97;5064089;28;45423;-54
2022/11/11 11:26:55;;;;;;;;;2.25;2.25;;;;;20.07;45.55;102555.75;5062702;28;45869;-52
2022/11/11 11:29:26;;;;;;;;;4.75;4.00;;;;;20.07;45.35;102561.00;5060482;28;45276;-53
2022/11/11 11:31:52;;;;;;;;;2.00;2.00;;;;;20.06;45.25;102556.66;5078817;28;45423;-54
2022/11/11 11:34:17;;;;;;;;;5.00;5.00;;;;;20.07;45.35;102553.13;5060468;28;45317;-52
2022/11/11 11:36:42;;;;;;;;;6.00;4.25;;;;;20.07;45.01;102550.47;5062614;28;51436;-52
2022/11/11 11:39:08;;;;;;;;;4.00;3.75;;;;;20.07;45.60;102550.47;5064316;28;45350;-53
2022/11/11 11:41:39;;;;;;;;;3.75;3.50;;;;;20.06;44.88;102543.50;5063665;28;45576;-51
2022/11/11 11:44:31;;;;;;;;;3.75;3.75;;;;;20.08;45.20;102540.81;5063503;28;46123;-52
2022/11/11 11:47:08;;;;;;;;;7.75;4.00;;;;;20.08;45.08;102540.81;5061589;28;45755;-54
2022/11/11 11:49:40;;;;;;;;;3.00;3.00;;;;;20.09;45.06;102539.91;5068155;28;45322;-52
2022/11/11 11:52:13;;;;;;;;;4.75;3.75;;;;;20.08;44.96;102536.41;5063816;28;45196;-52
2022/11/11 11:54:44;;;;;;;;;4.75;4.75;;;;;20.07;45.13;102524.16;5068393;28;47354;-54
2022/11/11 11:57:43;;;;;;;;;7.00;3.75;;;;;20.07;45.27;102521.53;5071983;28;45219;-50
2022/11/11 12:00:17;;;;;;;;;4.00;4.00;;;;;20.07;45.44;102523.28;5070298;28;45284;-51
2022/11/11 12:03:00;;;;;;;;;3.00;3.00;;;;;20.08;45.34;102523.25;5070413;28;45435;-50
2022/11/11 12:05:36;;;;;;;;;4.25;3.00;;;;;20.08;45.37;102517.13;5066342;28;46463;-48
2022/11/11 12:08:09;;;;;;;;;4.00;3.25;;;;;20.08;45.14;102514.47;5068017;28;45315;-48
2022/11/11 12:10:40;;;;;;;;;5.00;5.00;;;;;20.09;45.11;102518.84;5074807;28;45275;-52
2022/11/11 12:13:12;;;;;;;;;3.50;3.50;;;;;20.07;45.29;102518.03;5081561;28;45270;-53
2022/11/11 12:15:47;;;;;;;;;3.25;3.00;;;;;20.09;45.10;102521.47;5063728;28;46261;-53
2022/11/11 12:18:39;;;;;;;;;2.75;2.50;;;;;20.06;45.07;102511.91;5064126;28;45467;-49
2022/11/11 12:21:12;;;;;;;;;0.75;0.75;;;;;20.08;44.83;102515.38;5062976;28;45358;-53
2022/11/11 12:23:40;;;;;;;;;3.75;3.00;;;;;20.08;45.20;102504.84;5060036;28;45234;-53
2022/11/11 12:26:35;;;;;;;;;3.50;3.50;;;;;20.08;45.34;102517.13;5059292;28;45308;-54
2022/11/11 12:29:21;;;;;;;;;3.75;3.75;;;;;20.07;45.18;102508.38;5058654;28;45233;-54
2022/11/11 12:31:55;;;;;;;;;4.00;2.75;;;;;20.07;45.25;102503.09;5058886;28;45361;-53
2022/11/11 12:34:40;;;;;;;;;4.00;3.50;;;;;20.06;45.06;102498.75;5058888;28;45436;-55
2022/11/11 12:37:05;;;;;;;;;4.25;3.50;;;;;20.06;44.96;102495.25;5058510;28;45414;-54
2022/11/11 12:40:18;;;;;;;;;5.00;4.67;;;;;20.06;45.19;102490.00;5058468;28;45278;-54
2022/11/11 12:42:55;;;;;;;;;5.00;4.00;;;;;20.06;44.73;102490.00;4996091;28;45539;-52
2022/11/11 12:45:26;;;;;;;;;3.50;3.25;;;;;20.06;45.15;102484.72;4996739;28;45343;-51
2022/11/11 12:48:16;;;;;;;;;5.00;5.00;;;;;20.04;44.78;102482.13;5036506;28;46714;-56
2022/11/11 12:51:02;;;;;;;;;3.00;3.00;;;;;20.06;44.88;102480.31;5071634;28;45909;-52
2022/11/11 12:53:39;;;;;;;;;2.50;2.00;;;;;20.06;45.00;102476.84;5077421;28;45216;-53
2022/11/11 12:56:21;;;;;;;;;4.25;4.25;;;;;20.06;45.11;102469.78;5063665;28;45398;-55
2022/11/11 12:59:10;;;;;;;;;6.00;4.00;;;;;20.05;45.11;102465.44;5059588;28;45736;-55
2022/11/11 13:01:53;;;;;;;;;4.00;3.00;;;;;20.02;45.07;102452.34;5059385;28;45329;-55
2022/11/11 13:04:28;;;;;;;;;3.00;3.00;;;;;20.04;45.19;102458.44;5059673;28;45346;-55
2022/11/11 13:07:18;;;;;;;;;4.00;3.00;;;;;20.05;44.75;102451.41;5061562;28;45643;-54
2022/11/11 13:10:16;;;;;;;;;4.50;3.75;;;;;20.04;45.20;102450.53;5064587;28;46734;-55
2022/11/11 13:12:51;;;;;;;;;4.50;4.50;;;;;20.06;44.66;102464.53;5061253;28;45216;-56
2022/11/11 13:15:21;;;;;;;;;1.75;1.00;;;;;20.06;45.18;102461.91;5059398;28;45307;-54
2022/11/11 13:17:47;;;;;;;;;3.00;3.00;;;;;20.05;44.63;102454.91;5065377;28;45389;-55
2022/11/11 13:20:29;;;;;;;;;4.00;4.00;;;;;20.06;44.82;102455.78;5081308;28;46599;-54
2022/11/11 13:22:54;;;;;;;;;5.00;3.00;;;;;20.05;45.20;102444.38;5067830;28;45365;-55
2022/11/11 13:25:26;;;;;;;;;5.00;5.00;;;;;20.03;45.13;102448.81;5061194;28;45402;-54
2022/11/11 13:28:04;;;;;;;;;4.00;3.25;;;;;20.05;44.89;102443.53;5060438;28;45283;-54
2022/11/11 13:30:43;;;;;;;;;4.25;4.25;;;;;20.05;45.05;102439.09;5056578;28;46369;-54
2022/11/11 13:33:19;;;;;;;;;3.25;3.25;;;;;20.04;44.58;102437.38;5064985;28;45235;-52
2022/11/11 13:35:51;;;;;;;;;5.75;5.00;;;;;20.04;44.67;102440.00;5065788;28;45300;-52
2022/11/11 13:38:34;;;;;;;;;4.00;4.00;;;;;20.05;45.14;102435.63;5067342;28;45356;-54
2022/11/11 13:41:06;;;;;;;;;5.00;4.00;;;;;20.05;44.66;102433.84;5072135;28;46365;-53
2022/11/11 13:43:46;;;;;;;;;4.75;4.75;;;;;20.05;44.98;102440.88;5065932;28;45771;-59
2022/11/11 13:46:31;;;;;;;;;3.25;3.25;;;;;20.05;44.66;102441.75;5057651;28;45454;-53
2022/11/11 13:48:58;;;;;;;;;4.75;4.75;;;;;20.04;45.09;102432.13;5055400;28;45490;-52
2022/11/11 13:51:40;;;;;;;;;4.25;4.25;;;;;20.04;45.33;102424.22;5056385;28;45824;-54
2022/11/11 13:54:29;;;;;;;;;3.50;3.50;;;;;20.04;45.10;102424.22;5055469;28;45798;-53
2022/11/11 13:57:16;;;;;;;;;4.50;4.50;;;;;20.03;45.30;102417.22;5056864;28;45358;-52
2022/11/11 13:59:50;;;;;;;;;3.00;3.00;;;;;20.03;45.12;102417.22;5063159;28;45223;-53
2022/11/11 14:02:22;;;;;;;;;4.00;3.25;;;;;20.04;44.68;102408.44;5079461;28;45269;-54
2022/11/11 14:05:05;;;;;;;;;3.75;3.75;;;;;20.03;44.89;102411.97;5061208;28;45426;-52
2022/11/11 14:07:43;;;;;;;;;4.00;4.00;;;;;20.05;44.69;102404.03;5058017;28;45322;-54
2022/11/11 14:10:28;;;;;;;;;5.00;5.00;;;;;20.04;44.91;102397.91;5073028;28;45208;-55
2022/11/11 14:13:17;;;;;;;;;4.00;4.00;;;;;20.04;45.06;102392.63;5056384;28;45355;-54
2022/11/11 14:15:43;;;;;;;;;6.00;3.50;;;;;20.04;44.67;102397.91;5056555;28;45830;-56
2022/11/11 14:18:38;;;;;;;;;4.00;3.00;;;;;20.04;44.80;102397.06;5056403;28;45414;-54
2022/11/11 14:21:06;;;;;;;;;3.00;3.00;;;;;20.03;45.13;102397.97;5056134;28;45328;-53
2022/11/11 14:23:34;;;;;;;;;5.00;5.00;;;;;20.04;45.00;102397.91;5055880;28;47974;-54
2022/11/11 14:26:05;;;;;;;;;3.75;3.75;;;;;20.04;44.82;102397.91;5060640;28;45803;-50
2022/11/11 14:28:33;;;;;;;;;3.25;2.75;;;;;20.06;45.35;102395.25;5063485;28;45421;-56
2022/11/11 14:31:18;;;;;;;;;6.25;3.25;;;;;20.07;45.06;102397.81;5072985;28;46100;-54
2022/11/11 14:33:46;;;;;;;;;5.00;4.00;;;;;20.10;45.27;102391.59;5082583;28;45346;-54
2022/11/11 14:36:55;;;;;;;;;4.00;4.00;;;;;20.11;45.42;102392.47;5083650;28;45203;-54
2022/11/11 14:39:40;;;;;;;;;5.00;4.75;;;;;20.18;45.21;102396.66;5002809;28;45378;-55
2022/11/11 14:42:34;;;;;;;;;4.25;4.25;;;;;20.20;45.31;102395.69;5064000;28;45472;-55